Time;durP1;ratioP1;P1;durP2;ratioP2;P2;SDS_P1;SDS_P2;PMS_P1;PMS_P2;Temp;Humidity;BMP_temperature;BMP_pressure;BME280_temperature;BME280_humidity;BME280_pressure;Samples;Min_cycle;Max_cycle;Signal;HPM_P1;HPM_P2
2022/08/29 00:02:00;;;;;;;;;;;23.70;86.70;;;;;;5095891;28;19920;-51
2022/08/29 00:04:26;;;;;;;;;;;23.70;86.80;;;;;;5095756;28;20363;-53
2022/08/29 00:06:51;;;;;;;;;;;23.70;86.70;;;;;;5095691;28;20385;-54
2022/08/29 00:09:17;;;;;;;;;;;23.70;86.80;;;;;;5095813;28;19915;-52
2022/08/29 00:11:42;;;;;;;;;;;23.70;86.70;;;;;;5096287;28;20299;-56
2022/08/29 00:14:08;;;;;;;;;;;23.70;86.80;;;;;;5095739;28;19912;-55
2022/08/29 00:16:34;;;;;;;;;;;23.70;86.70;;;;;;5096317;28;19990;-55
2022/08/29 00:18:59;;;;;;;;;;;23.70;86.70;;;;;;5095795;28;19908;-53
2022/08/29 00:21:25;;;;;;;;;;;23.70;86.70;;;;;;5096315;28;19908;-52
2022/08/29 00:23:50;;;;;;;;;;;23.70;86.70;;;;;;5095589;28;19923;-53
2022/08/29 00:26:16;;;;;;;;;;;23.70;86.70;;;;;;5095715;28;19915;-55
2022/08/29 00:28:41;;;;;;;;;;;23.70;86.70;;;;;;5094464;28;19912;-56
2022/08/29 00:31:07;;;;;;;;;;;23.70;86.70;;;;;;5095334;28;20347;-54
2022/08/29 00:33:32;;;;;;;;;;;23.70;86.70;;;;;;5095302;28;19947;-56
2022/08/29 00:35:58;;;;;;;;;;;23.70;86.80;;;;;;5095298;28;19908;-55
2022/08/29 00:38:23;;;;;;;;;;;23.70;86.80;;;;;;5095520;28;19915;-53
2022/08/29 00:40:50;;;;;;;;;;;23.70;86.70;;;;;;5095443;28;19908;-54
2022/08/29 00:43:17;;;;;;;;;;;23.70;86.80;;;;;;5095114;28;19956;-53
2022/08/29 00:45:48;;;;;;;;;;;23.70;86.80;;;;;;5095377;28;19915;-52
2022/08/29 00:48:14;;;;;;;;;;;23.70;86.80;;;;;;5095581;28;19931;-52
2022/08/29 00:50:46;;;;;;;;;;;23.70;87.30;;;;;;5094002;28;20354;-55
2022/08/29 00:53:14;;;;;;;;;;;23.70;86.70;;;;;;5095234;28;19998;-51
2022/08/29 00:55:40;;;;;;;;;;;23.70;86.70;;;;;;5093942;28;20414;-55
2022/08/29 00:58:17;;;;;;;;;;;23.70;86.70;;;;;;5095152;28;19996;-55
2022/08/29 01:00:43;;;;;;;;;;;23.70;86.70;;;;;;5095213;28;19912;-53
2022/08/29 01:03:09;;;;;;;;;;;23.70;86.70;;;;;;5094637;28;19926;-53
2022/08/29 01:05:36;;;;;;;;;;;23.70;86.70;;;;;;5095415;28;20002;-53
2022/08/29 01:08:02;;;;;;;;;;;23.70;86.70;;;;;;5094681;28;20356;-52
2022/08/29 01:13:12;;;;;;;;;;;23.70;86.70;;;;;;5094325;28;19915;-55
2022/08/29 01:15:39;;;;;;;;;;;23.70;86.70;;;;;;5094784;28;19908;-51
2022/08/29 01:18:06;;;;;;;;;;;23.70;86.70;;;;;;5094583;28;20328;-55
2022/08/29 01:20:34;;;;;;;;;;;23.70;86.70;;;;;;5094824;28;20266;-55
2022/08/29 01:23:00;;;;;;;;;;;23.70;86.70;;;;;;5094477;28;19916;-52
2022/08/29 01:25:27;;;;;;;;;;;23.70;86.70;;;;;;5094463;28;20327;-53
2022/08/29 01:27:56;;;;;;;;;;;23.70;86.70;;;;;;5094366;28;20015;-51
2022/08/29 01:30:21;;;;;;;;;;;23.70;86.70;;;;;;5094184;28;19952;-54
2022/08/29 01:32:47;;;;;;;;;;;23.70;86.60;;;;;;5094567;28;19939;-55
2022/08/29 01:35:13;;;;;;;;;;;23.70;86.70;;;;;;5094513;28;19912;-56
2022/08/29 01:37:40;;;;;;;;;;;23.70;86.70;;;;;;5094177;28;20373;-55
2022/08/29 01:40:05;;;;;;;;;;;23.70;86.70;;;;;;5094335;28;19908;-54
2022/08/29 01:42:31;;;;;;;;;;;23.70;86.70;;;;;;5094188;28;19976;-55
2022/08/29 01:44:57;;;;;;;;;;;23.60;86.60;;;;;;5094489;28;19931;-51
2022/08/29 01:47:24;;;;;;;;;;;23.70;86.70;;;;;;5094397;28;19919;-55
2022/08/29 01:49:50;;;;;;;;;;;23.70;86.70;;;;;;5094317;28;20014;-56
2022/08/29 01:52:15;;;;;;;;;;;23.70;86.60;;;;;;5094093;28;20355;-53
2022/08/29 01:54:44;;;;;;;;;;;23.70;86.70;;;;;;5093028;28;19909;-52
2022/08/29 01:57:10;;;;;;;;;;;23.70;86.60;;;;;;5094298;28;19962;-55
2022/08/29 01:59:36;;;;;;;;;;;23.60;86.60;;;;;;5094078;28;20317;-54
2022/08/29 02:02:02;;;;;;;;;;;23.60;86.60;;;;;;5094116;28;19920;-55
2022/08/29 02:04:27;;;;;;;;;;;23.70;86.70;;;;;;5093971;28;19912;-49
2022/08/29 02:06:54;;;;;;;;;;;23.60;86.70;;;;;;5094214;28;20015;-54
2022/08/29 02:09:21;;;;;;;;;;;23.60;86.60;;;;;;5094209;28;20317;-56
2022/08/29 02:11:47;;;;;;;;;;;23.60;86.60;;;;;;5093787;28;19908;-55
2022/08/29 02:14:12;;;;;;;;;;;23.60;86.60;;;;;;5093895;28;19944;-55
2022/08/29 02:16:38;;;;;;;;;;;23.60;86.60;;;;;;5093737;28;19916;-56
2022/08/29 02:19:03;;;;;;;;;;;23.60;86.60;;;;;;5094060;28;19915;-54
2022/08/29 02:21:29;;;;;;;;;;;23.60;86.60;;;;;;5093629;28;20018;-50
2022/08/29 02:23:56;;;;;;;;;;;23.60;86.60;;;;;;5095258;28;19923;-56
2022/08/29 02:26:22;;;;;;;;;;;23.60;86.70;;;;;;5097796;28;19908;-55
2022/08/29 02:28:49;;;;;;;;;;;23.60;86.60;;;;;;5097995;28;19934;-55
2022/08/29 02:31:15;;;;;;;;;;;23.60;86.60;;;;;;5097730;28;20266;-53
2022/08/29 02:33:40;;;;;;;;;;;23.60;86.60;;;;;;5096708;28;19929;-53
2022/08/29 02:36:06;;;;;;;;;;;23.60;86.60;;;;;;5097930;28;20017;-55
2022/08/29 02:38:32;;;;;;;;;;;23.60;86.60;;;;;;5097937;28;19914;-55
2022/08/29 02:40:57;;;;;;;;;;;23.60;86.60;;;;;;5098174;28;20102;-55
2022/08/29 02:43:24;;;;;;;;;;;23.60;86.60;;;;;;5097746;28;19920;-55
2022/08/29 02:45:50;;;;;;;;;;;23.60;86.70;;;;;;5097669;28;19952;-54
2022/08/29 02:48:15;;;;;;;;;;;23.60;86.60;;;;;;5097693;28;19908;-57
2022/08/29 02:50:45;;;;;;;;;;;23.60;86.50;;;;;;5096245;28;19908;-55
2022/08/29 02:53:12;;;;;;;;;;;23.60;86.60;;;;;;5097553;28;19908;-54
2022/08/29 02:55:37;;;;;;;;;;;23.60;86.60;;;;;;5097552;28;19915;-54
2022/08/29 02:58:03;;;;;;;;;;;23.60;87.10;;;;;;5097469;28;20002;-55
2022/08/29 03:00:29;;;;;;;;;;;23.60;86.60;;;;;;5097545;28;19912;-55
2022/08/29 03:02:55;;;;;;;;;;;23.60;86.60;;;;;;5096981;28;19920;-51
2022/08/29 03:05:22;;;;;;;;;;;23.60;86.60;;;;;;5097039;28;20417;-55
2022/08/29 03:07:48;;;;;;;;;;;23.60;86.60;;;;;;5097340;28;19908;-53
2022/08/29 03:10:13;;;;;;;;;;;23.60;86.60;;;;;;5097318;28;19915;-54
2022/08/29 03:12:39;;;;;;;;;;;23.60;87.10;;;;;;5097016;28;19908;-55
2022/08/29 03:15:05;;;;;;;;;;;23.60;86.70;;;;;;5096846;28;19998;-53
2022/08/29 03:17:31;;;;;;;;;;;23.60;86.60;;;;;;5097100;28;19908;-55
2022/08/29 03:19:57;;;;;;;;;;;23.60;86.60;;;;;;5097064;28;20275;-54
2022/08/29 03:22:23;;;;;;;;;;;23.60;86.60;;;;;;5096594;28;20114;-54
2022/08/29 03:24:49;;;;;;;;;;;23.60;86.60;;;;;;5097105;28;19912;-52
2022/08/29 03:27:14;;;;;;;;;;;23.60;86.60;;;;;;5096939;28;19908;-52
2022/08/29 03:29:40;;;;;;;;;;;23.60;86.60;;;;;;5096553;28;19962;-49
2022/08/29 03:32:05;;;;;;;;;;;23.60;86.60;;;;;;5096777;28;19951;-54
2022/08/29 03:34:31;;;;;;;;;;;23.60;86.60;;;;;;5096200;28;19951;-51
2022/08/29 03:36:57;;;;;;;;;;;23.60;86.60;;;;;;5096645;28;19908;-54
2022/08/29 03:39:23;;;;;;;;;;;23.60;86.60;;;;;;5096927;28;19935;-55
2022/08/29 03:41:48;;;;;;;;;;;23.60;86.60;;;;;;5096561;28;19908;-56
2022/08/29 03:44:14;;;;;;;;;;;23.60;86.70;;;;;;5096308;28;19912;-54
2022/08/29 03:46:39;;;;;;;;;;;23.50;86.60;;;;;;5096267;28;19915;-52
2022/08/29 03:49:06;;;;;;;;;;;23.50;86.60;;;;;;5096470;28;20312;-52
2022/08/29 03:51:35;;;;;;;;;;;23.60;86.60;;;;;;5095291;28;19931;-51
2022/08/29 03:54:01;;;;;;;;;;;23.60;86.70;;;;;;5096101;28;20382;-51
2022/08/29 03:56:27;;;;;;;;;;;23.50;86.60;;;;;;5096323;28;19908;-56
2022/08/29 03:58:53;;;;;;;;;;;23.50;86.60;;;;;;5096143;28;19912;-53
2022/08/29 04:01:24;;;;;;;;;;;23.50;86.60;;;;;;5096069;28;19915;-54
2022/08/29 04:03:50;;;;;;;;;;;23.50;86.60;;;;;;5096186;28;19970;-55
2022/08/29 04:06:16;;;;;;;;;;;23.60;86.70;;;;;;5096066;28;19908;-51
2022/08/29 04:08:42;;;;;;;;;;;23.50;86.60;;;;;;5096132;28;19915;-55
2022/08/29 04:11:11;;;;;;;;;;;23.50;86.60;;;;;;5096017;28;19908;-52
2022/08/29 04:13:37;;;;;;;;;;;23.50;86.60;;;;;;5095644;28;19908;-56
2022/08/29 04:16:13;;;;;;;;;;;23.50;86.60;;;;;;5095885;28;20087;-56
2022/08/29 04:18:38;;;;;;;;;;;23.50;86.60;;;;;;5096197;28;19909;-56
2022/08/29 04:21:04;;;;;;;;;;;23.50;86.60;;;;;;5095754;28;19908;-56
2022/08/29 04:23:30;;;;;;;;;;;23.50;86.60;;;;;;5095377;28;20267;-53
2022/08/29 04:25:56;;;;;;;;;;;23.50;86.60;;;;;;5095679;28;20278;-55
2022/08/29 04:28:22;;;;;;;;;;;23.50;86.60;;;;;;5095626;28;19914;-55
2022/08/29 04:30:48;;;;;;;;;;;23.50;86.60;;;;;;5095343;28;19908;-53
2022/08/29 04:33:14;;;;;;;;;;;23.50;86.60;;;;;;5095226;28;19934;-52
2022/08/29 04:35:39;;;;;;;;;;;23.50;86.60;;;;;;5094323;28;19908;-54
2022/08/29 04:38:05;;;;;;;;;;;23.50;86.60;;;;;;5095616;28;20354;-54
2022/08/29 04:40:31;;;;;;;;;;;23.50;86.60;;;;;;5095569;28;19954;-53
2022/08/29 04:42:58;;;;;;;;;;;23.50;86.60;;;;;;5095343;28;19916;-55
2022/08/29 04:45:24;;;;;;;;;;;23.50;86.60;;;;;;5095646;28;19912;-50
2022/08/29 04:47:50;;;;;;;;;;;23.50;86.60;;;;;;5094383;28;19912;-51
2022/08/29 04:50:17;;;;;;;;;;;23.50;86.60;;;;;;5094815;28;19908;-55
2022/08/29 04:52:43;;;;;;;;;;;23.50;86.60;;;;;;5095204;28;19995;-50
2022/08/29 04:55:10;;;;;;;;;;;23.50;86.60;;;;;;5095078;28;20381;-53
2022/08/29 04:57:37;;;;;;;;;;;23.50;86.60;;;;;;5094852;28;19908;-53
2022/08/29 05:00:03;;;;;;;;;;;23.50;86.50;;;;;;5095310;28;19908;-52
2022/08/29 05:02:29;;;;;;;;;;;23.50;86.60;;;;;;5093193;28;19920;-53
2022/08/29 05:04:55;;;;;;;;;;;23.50;86.60;;;;;;5094883;28;19908;-54
2022/08/29 05:07:22;;;;;;;;;;;23.50;86.60;;;;;;5095115;28;19909;-52
2022/08/29 05:09:57;;;;;;;;;;;23.50;86.50;;;;;;5094791;28;19908;-54
2022/08/29 05:12:24;;;;;;;;;;;23.50;86.50;;;;;;5094460;28;19912;-55
2022/08/29 05:14:50;;;;;;;;;;;23.50;86.50;;;;;;5094801;28;19964;-52
2022/08/29 05:17:16;;;;;;;;;;;23.50;86.50;;;;;;5093135;28;20350;-53
2022/08/29 05:19:42;;;;;;;;;;;23.50;86.50;;;;;;5094302;28;19908;-52
2022/08/29 05:22:14;;;;;;;;;;;23.50;86.50;;;;;;5094258;28;19979;-55
2022/08/29 05:24:40;;;;;;;;;;;23.50;86.50;;;;;;5094258;28;19948;-51
2022/08/29 05:27:06;;;;;;;;;;;23.50;86.50;;;;;;5094163;28;19945;-55
2022/08/29 05:29:32;;;;;;;;;;;23.50;86.40;;;;;;5094268;28;19908;-54
2022/08/29 05:31:57;;;;;;;;;;;23.50;86.40;;;;;;5094840;28;19912;-53
2022/08/29 05:34:23;;;;;;;;;;;23.50;86.40;;;;;;5094109;28;19957;-52
2022/08/29 05:36:48;;;;;;;;;;;23.50;86.40;;;;;;5094035;28;19908;-52
2022/08/29 05:39:14;;;;;;;;;;;23.50;86.40;;;;;;5092601;28;20269;-55
2022/08/29 05:41:39;;;;;;;;;;;23.50;86.40;;;;;;5093810;28;19908;-54
2022/08/29 05:44:05;;;;;;;;;;;23.50;86.40;;;;;;5094119;28;20003;-55
2022/08/29 05:46:30;;;;;;;;;;;23.50;86.40;;;;;;5094238;28;20293;-53
2022/08/29 05:48:57;;;;;;;;;;;23.50;86.40;;;;;;5093968;28;19908;-54
2022/08/29 05:51:23;;;;;;;;;;;23.50;86.40;;;;;;5094207;28;19961;-53
2022/08/29 05:53:48;;;;;;;;;;;23.50;86.90;;;;;;5093851;28;19912;-55
2022/08/29 05:56:21;;;;;;;;;;;23.50;86.40;;;;;;5093849;28;20298;-51
2022/08/29 05:58:47;;;;;;;;;;;23.50;86.30;;;;;;5093897;28;20278;-55
2022/08/29 06:01:33;;;;;;;;;;;23.50;86.40;;;;;;5093802;28;19908;-52
2022/08/29 06:03:59;;;;;;;;;;;23.50;86.40;;;;;;5093255;28;20386;-50
2022/08/29 06:06:25;;;;;;;;;;;23.50;86.40;;;;;;5093434;28;19908;-53
2022/08/29 06:08:52;;;;;;;;;;;23.50;86.30;;;;;;5093854;28;19916;-53
2022/08/29 06:11:19;;;;;;;;;;;23.50;86.40;;;;;;5093579;28;19991;-51
2022/08/29 06:13:44;;;;;;;;;;;23.50;86.40;;;;;;5093794;28;20380;-52
2022/08/29 06:16:11;;;;;;;;;;;23.50;86.40;;;;;;5093498;28;19935;-52
2022/08/29 06:18:37;;;;;;;;;;;23.50;86.40;;;;;;5093851;28;19915;-56
2022/08/29 06:21:06;;;;;;;;;;;23.50;86.40;;;;;;5092514;28;19912;-56
2022/08/29 06:23:31;;;;;;;;;;;23.50;86.90;;;;;;5094115;28;19969;-52
2022/08/29 06:25:57;;;;;;;;;;;23.50;86.30;;;;;;5093637;28;19912;-54
2022/08/29 06:28:22;;;;;;;;;;;23.50;86.30;;;;;;5093411;28;20409;-52
2022/08/29 06:30:48;;;;;;;;;;;23.50;86.40;;;;;;5093413;28;19908;-56
2022/08/29 06:33:13;;;;;;;;;;;23.50;86.40;;;;;;5093152;28;19908;-54
2022/08/29 06:35:39;;;;;;;;;;;23.50;86.40;;;;;;5093814;28;19915;-52
2022/08/29 06:38:05;;;;;;;;;;;23.50;86.90;;;;;;5093015;28;20409;-53
2022/08/29 06:40:31;;;;;;;;;;;23.50;86.40;;;;;;5093703;28;19911;-54
2022/08/29 06:42:57;;;;;;;;;;;23.50;86.40;;;;;;5093314;28;20023;-54
2022/08/29 06:45:22;;;;;;;;;;;23.50;86.40;;;;;;5093462;28;20312;-56
2022/08/29 06:47:48;;;;;;;;;;;23.50;86.40;;;;;;5093361;28;19908;-54
2022/08/29 06:50:14;;;;;;;;;;;23.50;86.40;;;;;;5093559;28;19965;-54
2022/08/29 06:52:40;;;;;;;;;;;23.50;86.30;;;;;;5093087;28;19973;-50
2022/08/29 06:55:10;;;;;;;;;;;23.50;86.40;;;;;;5093358;28;19908;-56
2022/08/29 06:57:36;;;;;;;;;;;23.50;86.40;;;;;;5092046;28;20342;-53
2022/08/29 07:00:03;;;;;;;;;;;23.50;86.40;;;;;;5093242;28;19908;-55
2022/08/29 07:02:28;;;;;;;;;;;23.50;86.30;;;;;;5093189;28;19931;-54
2022/08/29 07:04:54;;;;;;;;;;;23.50;86.30;;;;;;5092825;28;19908;-54
2022/08/29 07:07:19;;;;;;;;;;;23.50;86.30;;;;;;5092817;28;20054;-53
2022/08/29 07:09:45;;;;;;;;;;;23.50;86.30;;;;;;5093655;28;19969;-52
2022/08/29 07:12:10;;;;;;;;;;;23.50;86.30;;;;;;5096974;28;19912;-56
2022/08/29 07:14:36;;;;;;;;;;;23.50;86.30;;;;;;5096905;28;19915;-54
2022/08/29 07:17:01;;;;;;;;;;;23.50;86.40;;;;;;5096381;28;19908;-52
2022/08/29 07:19:27;;;;;;;;;;;23.50;86.30;;;;;;5096672;28;19908;-54
2022/08/29 07:21:53;;;;;;;;;;;23.50;86.30;;;;;;5096434;28;19999;-51
2022/08/29 07:24:18;;;;;;;;;;;23.50;86.30;;;;;;5096421;28;20377;-56
2022/08/29 07:26:44;;;;;;;;;;;23.50;86.20;;;;;;5096235;28;19908;-54
2022/08/29 07:29:12;;;;;;;;;;;23.50;86.30;;;;;;5096497;28;20414;-54
2022/08/29 07:31:38;;;;;;;;;;;23.50;86.20;;;;;;5096175;28;20370;-55
2022/08/29 07:34:03;;;;;;;;;;;23.50;86.20;;;;;;5096277;28;19912;-53
2022/08/29 07:36:32;;;;;;;;;;;23.50;86.20;;;;;;5095998;28;19928;-53
2022/08/29 07:38:58;;;;;;;;;;;23.50;86.20;;;;;;5096453;28;19908;-53
2022/08/29 07:41:24;;;;;;;;;;;23.50;86.20;;;;;;5095896;28;19998;-54
2022/08/29 07:43:49;;;;;;;;;;;23.50;86.20;;;;;;5095834;28;19942;-54
2022/08/29 07:46:16;;;;;;;;;;;23.50;86.30;;;;;;5095673;28;19908;-51
2022/08/29 07:48:42;;;;;;;;;;;23.50;86.20;;;;;;5095967;28;20359;-52
2022/08/29 07:51:12;;;;;;;;;;;23.50;86.30;;;;;;5096325;28;19908;-52
2022/08/29 07:53:38;;;;;;;;;;;23.50;86.30;;;;;;5095775;28;19908;-52
2022/08/29 07:56:04;;;;;;;;;;;23.50;86.30;;;;;;5096270;28;19957;-55
2022/08/29 07:58:30;;;;;;;;;;;23.50;86.20;;;;;;5095862;28;19912;-52
2022/08/29 08:00:56;;;;;;;;;;;23.50;86.20;;;;;;5096324;28;20374;-51
2022/08/29 08:03:21;;;;;;;;;;;23.50;86.20;;;;;;5095413;28;19920;-53
2022/08/29 08:05:47;;;;;;;;;;;23.50;86.20;;;;;;5095808;28;20018;-56
2022/08/29 08:08:12;;;;;;;;;;;23.50;86.10;;;;;;5095952;28;20351;-52
2022/08/29 08:10:38;;;;;;;;;;;23.60;86.20;;;;;;5096062;28;19981;-56
2022/08/29 08:13:03;;;;;;;;;;;23.60;86.20;;;;;;5095827;28;19908;-54
2022/08/29 08:15:29;;;;;;;;;;;23.60;86.10;;;;;;5095826;28;19912;-56
2022/08/29 08:17:54;;;;;;;;;;;23.60;86.10;;;;;;5096069;28;20019;-55
2022/08/29 08:20:20;;;;;;;;;;;23.60;86.00;;;;;;5095357;28;19915;-50
2022/08/29 08:22:45;;;;;;;;;;;23.60;86.00;;;;;;5095244;28;19916;-52
2022/08/29 08:25:11;;;;;;;;;;;23.60;86.00;;;;;;5095634;28;19930;-55
2022/08/29 08:27:36;;;;;;;;;;;23.60;86.00;;;;;;5095269;28;19943;-55
2022/08/29 08:30:02;;;;;;;;;;;23.70;86.10;;;;;;5095559;28;20326;-52
2022/08/29 08:32:28;;;;;;;;;;;23.70;86.00;;;;;;5095181;28;19933;-55
2022/08/29 08:34:53;;;;;;;;;;;23.70;86.00;;;;;;5095164;28;19907;-51
2022/08/29 08:37:19;;;;;;;;;;;23.60;86.00;;;;;;5095287;28;19912;-53
2022/08/29 08:39:44;;;;;;;;;;;23.60;86.00;;;;;;5095336;28;20346;-51
2022/08/29 08:42:10;;;;;;;;;;;23.60;86.00;;;;;;5094971;28;19924;-53
2022/08/29 08:44:51;;;;;;;;;;;23.70;86.00;;;;;;5094827;28;19908;-53
2022/08/29 08:47:19;;;;;;;;;;;23.60;86.00;;;;;;5094836;28;20010;-50
2022/08/29 08:49:49;;;;;;;;;;;23.60;86.00;;;;;;5095188;28;20381;-53
2022/08/29 08:52:19;;;;;;;;;;;23.70;86.00;;;;;;5094001;28;19912;-55
2022/08/29 08:54:52;;;;;;;;;;;23.70;86.10;;;;;;5094756;28;19908;-56
2022/08/29 08:57:19;;;;;;;;;;;23.70;86.00;;;;;;5095019;28;19962;-55
2022/08/29 08:59:48;;;;;;;;;;;23.60;86.00;;;;;;5094609;28;20312;-53
2022/08/29 09:02:25;;;;;;;;;;;23.60;86.00;;;;;;5094490;28;19967;-52
2022/08/29 09:05:09;;;;;;;;;;;23.70;86.10;;;;;;5094808;28;20344;-56
2022/08/29 09:07:54;;;;;;;;;;;23.60;86.00;;;;;;5093741;28;19995;-53
2022/08/29 09:10:31;;;;;;;;;;;23.70;86.10;;;;;;5094969;28;19908;-55
2022/08/29 09:13:26;;;;;;;;;;;23.70;86.00;;;;;;5094822;28;19961;-52
2022/08/29 09:15:53;;;;;;;;;;;23.70;86.60;;;;;;5085433;28;19987;-54
2022/08/29 09:18:26;;;;;;;;;;;23.60;86.00;;;;;;5094706;28;19908;-55
2022/08/29 09:20:53;;;;;;;;;;;23.70;86.00;;;;;;5094185;28;20384;-55
2022/08/29 09:23:24;;;;;;;;;;;23.70;86.00;;;;;;5094122;28;19941;-53
2022/08/29 09:25:50;;;;;;;;;;;23.70;86.10;;;;;;5094187;28;19977;-53
2022/08/29 09:28:16;;;;;;;;;;;23.70;86.10;;;;;;5092933;28;20274;-55
2022/08/29 09:30:42;;;;;;;;;;;23.70;86.00;;;;;;5094399;28;19912;-54
2022/08/29 09:33:09;;;;;;;;;;;23.70;86.00;;;;;;5093710;28;19908;-51
2022/08/29 09:35:46;;;;;;;;;;;23.70;86.00;;;;;;5092966;28;20426;-53
2022/08/29 09:38:17;;;;;;;;;;;23.70;86.00;;;;;;5094585;28;20007;-53
2022/08/29 09:40:45;;;;;;;;;;;23.70;86.00;;;;;;5094131;28;19923;-54
2022/08/29 09:43:25;;;;;;;;;;;23.60;86.00;;;;;;5094122;28;20300;-52
2022/08/29 09:46:09;;;;;;;;;;;23.70;86.00;;;;;;5093767;28;20389;-52
2022/08/29 09:48:35;;;;;;;;;;;23.70;86.00;;;;;;5092798;28;19908;-55
2022/08/29 09:51:08;;;;;;;;;;;23.60;86.00;;;;;;5093760;28;19908;-55
2022/08/29 09:53:34;;;;;;;;;;;23.70;86.00;;;;;;5093793;28;19963;-53
2022/08/29 09:56:04;;;;;;;;;;;23.70;86.00;;;;;;5092727;28;19950;-51
2022/08/29 09:58:33;;;;;;;;;;;23.70;86.00;;;;;;5093491;28;19988;-56
2022/08/29 10:01:00;;;;;;;;;;;23.70;86.00;;;;;;5093426;28;19908;-51
2022/08/29 10:03:28;;;;;;;;;;;23.70;86.00;;;;;;5093572;28;19989;-55
2022/08/29 10:06:13;;;;;;;;;;;23.70;86.00;;;;;;5092466;28;19908;-52
2022/08/29 10:08:39;;;;;;;;;;;23.70;86.00;;;;;;5092533;28;19908;-53
2022/08/29 10:11:23;;;;;;;;;;;23.70;86.00;;;;;;5094054;28;19961;-54
2022/08/29 10:13:52;;;;;;;;;;;23.70;86.00;;;;;;5093736;28;20004;-56
2022/08/29 10:16:26;;;;;;;;;;;23.70;86.00;;;;;;5093385;28;19961;-53
2022/08/29 10:18:52;;;;;;;;;;;23.70;86.00;;;;;;5093438;28;19908;-55
2022/08/29 10:21:17;;;;;;;;;;;23.70;86.00;;;;;;5093537;28;20022;-56
2022/08/29 10:23:48;;;;;;;;;;;23.70;86.00;;;;;;5093384;28;20389;-54
2022/08/29 10:26:25;;;;;;;;;;;23.70;86.00;;;;;;5093365;28;19915;-53
2022/08/29 10:28:57;;;;;;;;;;;23.70;86.00;;;;;;5092280;28;20370;-51
2022/08/29 10:31:29;;;;;;;;;;;23.70;86.00;;;;;;5093434;28;20007;-51
2022/08/29 10:34:05;;;;;;;;;;;23.70;86.00;;;;;;5093951;28;19999;-55
2022/08/29 10:36:32;;;;;;;;;;;23.70;86.00;;;;;;5093413;28;19915;-52
2022/08/29 10:39:15;;;;;;;;;;;23.70;86.00;;;;;;5093467;28;19908;-55
2022/08/29 10:41:51;;;;;;;;;;;23.70;86.00;;;;;;5092349;28;20347;-54
2022/08/29 10:44:20;;;;;;;;;;;23.70;85.90;;;;;;5093703;28;19916;-52
2022/08/29 10:47:01;;;;;;;;;;;23.70;85.90;;;;;;5097296;28;20351;-54
2022/08/29 10:49:47;;;;;;;;;;;23.70;86.00;;;;;;5097593;28;20437;-53
2022/08/29 10:52:21;;;;;;;;;;;23.70;86.50;;;;;;5075836;28;20347;-53
2022/08/29 10:55:05;;;;;;;;;;;23.70;85.90;;;;;;5097498;28;19908;-52
2022/08/29 10:57:33;;;;;;;;;;;23.70;86.00;;;;;;5097199;28;19908;-55
2022/08/29 11:00:03;;;;;;;;;;;23.70;85.90;;;;;;5096786;28;19954;-49
2022/08/29 11:02:28;;;;;;;;;;;23.70;86.00;;;;;;5096848;28;19920;-54
2022/08/29 11:04:58;;;;;;;;;;;23.70;86.00;;;;;;5096980;28;20306;-55
2022/08/29 11:07:32;;;;;;;;;;;23.70;85.90;;;;;;5095654;28;20030;-54
2022/08/29 11:10:17;;;;;;;;;;;23.70;86.00;;;;;;5097127;28;19957;-52
2022/08/29 11:12:48;;;;;;;;;;;23.70;86.00;;;;;;5097060;28;19912;-53
2022/08/29 11:15:29;;;;;;;;;;;23.70;85.90;;;;;;5096925;28;19913;-52
2022/08/29 11:18:00;;;;;;;;;;;23.70;85.90;;;;;;5096321;28;20270;-55
2022/08/29 11:20:29;;;;;;;;;;;23.70;85.90;;;;;;5096721;28;19915;-51
2022/08/29 11:23:11;;;;;;;;;;;23.70;85.90;;;;;;5096735;28;19916;-54
2022/08/29 11:25:40;;;;;;;;;;;23.70;85.90;;;;;;5096820;28;19915;-53
2022/08/29 11:28:38;;;;;;;;;;;23.70;85.90;;;;;;5096180;28;19908;-50
2022/08/29 11:31:03;;;;;;;;;;;23.70;85.90;;;;;;5072988;28;19912;-53
2022/08/29 11:33:40;;;;;;;;;;;23.70;85.90;;;;;;5096236;28;19912;-54
2022/08/29 11:36:12;;;;;;;;;;;23.70;85.90;;;;;;5095913;28;19909;-51
2022/08/29 11:38:37;;;;;;;;;;;23.70;85.90;;;;;;5096515;28;19915;-54
2022/08/29 11:41:09;;;;;;;;;;;23.70;86.00;;;;;;5095217;28;20336;-54
2022/08/29 11:43:37;;;;;;;;;;;23.70;85.90;;;;;;5096420;28;20219;-53
2022/08/29 11:46:05;;;;;;;;;;;23.70;85.90;;;;;;5094733;28;19957;-55
2022/08/29 11:48:37;;;;;;;;;;;23.70;85.90;;;;;;5096436;28;19915;-50
2022/08/29 11:51:21;;;;;;;;;;;23.70;86.40;;;;;;5095912;28;20331;-54
2022/08/29 11:53:47;;;;;;;;;;;23.70;85.90;;;;;;5095879;28;20332;-54
2022/08/29 11:56:12;;;;;;;;;;;23.70;85.90;;;;;;5095550;28;19908;-55
2022/08/29 11:58:42;;;;;;;;;;;23.70;85.90;;;;;;5095748;28;19914;-54
2022/08/29 12:01:08;;;;;;;;;;;23.70;85.90;;;;;;5096081;28;19908;-54
2022/08/29 12:03:34;;;;;;;;;;;23.70;85.90;;;;;;5094295;28;19999;-52
2022/08/29 12:06:18;;;;;;;;;;;23.70;85.90;;;;;;5096043;28;20365;-52
2022/08/29 12:09:04;;;;;;;;;;;23.70;85.90;;;;;;5094664;28;20002;-53
2022/08/29 12:11:48;;;;;;;;;;;23.70;85.90;;;;;;5094723;28;19912;-52
2022/08/29 12:14:29;;;;;;;;;;;23.70;85.90;;;;;;5095495;28;20401;-55
2022/08/29 12:16:55;;;;;;;;;;;23.70;85.90;;;;;;5095652;28;19992;-51
2022/08/29 12:19:39;;;;;;;;;;;23.70;85.90;;;;;;5095886;28;19920;-55
2022/08/29 12:22:05;;;;;;;;;;;23.70;85.90;;;;;;5095409;28;19908;-56
2022/08/29 12:24:36;;;;;;;;;;;23.70;85.90;;;;;;5093830;28;20378;-55
2022/08/29 12:27:02;;;;;;;;;;;23.70;85.90;;;;;;5093965;28;19922;-55
2022/08/29 12:29:33;;;;;;;;;;;23.70;85.90;;;;;;5095442;28;20002;-48
2022/08/29 12:32:17;;;;;;;;;;;23.70;85.90;;;;;;5095263;28;20267;-52
2022/08/29 12:34:47;;;;;;;;;;;23.70;85.80;;;;;;5094203;28;19918;-52
2022/08/29 12:37:31;;;;;;;;;;;23.70;85.90;;;;;;5094866;28;19908;-55
2022/08/29 12:40:10;;;;;;;;;;;23.70;85.80;;;;;;5095151;28;19961;-53
2022/08/29 12:42:41;;;;;;;;;;;23.70;85.80;;;;;;5094874;28;20359;-55
2022/08/29 12:45:07;;;;;;;;;;;23.70;85.90;;;;;;5095157;28;19908;-49
2022/08/29 12:47:50;;;;;;;;;;;23.70;85.90;;;;;;5095038;28;20370;-54
2022/08/29 12:50:21;;;;;;;;;;;23.70;85.80;;;;;;5094644;28;19908;-54
2022/08/29 12:53:14;;;;;;;;;;;23.70;85.80;;;;;;5094617;28;19908;-52
2022/08/29 12:55:43;;;;;;;;;;;23.70;85.80;;;;;;5094711;28;19908;-53
2022/08/29 12:58:09;;;;;;;;;;;23.70;85.90;;;;;;5094773;28;19953;-53
2022/08/29 13:00:35;;;;;;;;;;;23.70;85.90;;;;;;5093617;28;19916;-52
2022/08/29 13:03:06;;;;;;;;;;;23.70;85.80;;;;;;5094773;28;19920;-52
2022/08/29 13:05:32;;;;;;;;;;;23.70;85.80;;;;;;5094292;28;20278;-54
2022/08/29 13:08:00;;;;;;;;;;;23.70;85.80;;;;;;5093311;28;20319;-52
2022/08/29 13:10:26;;;;;;;;;;;23.70;85.80;;;;;;5094376;28;19951;-55
2022/08/29 13:12:55;;;;;;;;;;;23.70;85.80;;;;;;5094479;28;19908;-53
2022/08/29 13:15:28;;;;;;;;;;;23.80;85.80;;;;;;5094449;28;19908;-53
2022/08/29 13:17:54;;;;;;;;;;;23.70;85.80;;;;;;5094532;28;19912;-56
2022/08/29 13:20:47;;;;;;;;;;;23.70;85.80;;;;;;5094114;28;19908;-50
2022/08/29 13:23:24;;;;;;;;;;;23.80;85.90;;;;;;5093240;28;20006;-50
2022/08/29 13:25:52;;;;;;;;;;;23.80;85.80;;;;;;5092959;28;19977;-50
2022/08/29 13:28:20;;;;;;;;;;;23.70;85.80;;;;;;5094059;28;19914;-55
2022/08/29 13:31:04;;;;;;;;;;;23.70;85.80;;;;;;5094564;28;19998;-53
2022/08/29 13:33:30;;;;;;;;;;;23.80;85.90;;;;;;5092896;28;20345;-56
2022/08/29 13:35:55;;;;;;;;;;;23.80;85.90;;;;;;5094036;28;19940;-51
2022/08/29 13:38:23;;;;;;;;;;;23.70;85.80;;;;;;5092382;28;19914;-56
2022/08/29 13:40:55;;;;;;;;;;;23.70;85.80;;;;;;5094101;28;19966;-56
2022/08/29 13:43:42;;;;;;;;;;;23.80;85.80;;;;;;5092662;28;20022;-56
2022/08/29 13:46:24;;;;;;;;;;;23.80;85.80;;;;;;5094132;28;19934;-57
2022/08/29 13:48:56;;;;;;;;;;;23.70;85.80;;;;;;5094375;28;19915;-55
2022/08/29 13:51:22;;;;;;;;;;;23.70;85.80;;;;;;5094271;28;19966;-54
2022/08/29 13:53:47;;;;;;;;;;;23.70;85.80;;;;;;5094076;28;19908;-55
2022/08/29 13:56:42;;;;;;;;;;;23.70;85.80;;;;;;5094001;28;20354;-55
2022/08/29 13:59:10;;;;;;;;;;;23.70;85.80;;;;;;5084664;28;19947;-55
2022/08/29 14:01:36;;;;;;;;;;;23.80;85.80;;;;;;5093742;28;19908;-55
2022/08/29 14:04:01;;;;;;;;;;;23.70;85.80;;;;;;5093371;28;19938;-54
2022/08/29 14:06:27;;;;;;;;;;;23.70;85.80;;;;;;5093620;28;19908;-53
2022/08/29 14:08:53;;;;;;;;;;;23.70;85.80;;;;;;5093477;28;19915;-54
2022/08/29 14:11:19;;;;;;;;;;;23.70;85.80;;;;;;5093281;28;19960;-51
2022/08/29 14:13:46;;;;;;;;;;;23.70;85.80;;;;;;5093638;28;19908;-54
2022/08/29 14:16:12;;;;;;;;;;;23.70;85.80;;;;;;5093284;28;19908;-52
2022/08/29 14:18:37;;;;;;;;;;;23.70;85.80;;;;;;5093267;28;19915;-55
2022/08/29 14:21:03;;;;;;;;;;;23.70;85.80;;;;;;5096519;28;19912;-51
2022/08/29 14:23:28;;;;;;;;;;;23.80;85.80;;;;;;5097254;28;20508;-54
2022/08/29 14:25:54;;;;;;;;;;;23.70;85.80;;;;;;5097411;28;20007;-56
2022/08/29 14:28:19;;;;;;;;;;;23.70;85.80;;;;;;5097090;28;20325;-52